Terminal Aerodrome Forecast
Issued by NWS

Home | Current Version | Previous Version | Text Only | Print | Product List | Glossary On
Versions: 1 2 3 4 5 6 7 8 9 10 11 12 13 14 15 16 17 18
000
FTUS45 KVEF 290520
TAFEED
TAF
KEED 290520Z 2906/3006 VRB06KT P6SM SCT090 BKN120
     FM291200 35008KT P6SM SCT120
     FM292100 23010KT P6SM SCT120=

USA.gov is the U.S. government's official web portal to all federal, state and local government web resources and services.